createdAt,value
2023-01-17T00:02:44.563Z,5.40
2023-01-17T00:05:32.090Z,3.80
2023-01-17T00:08:20.291Z,6.10
2023-01-17T00:10:49.312Z,4.50
2023-01-17T00:13:21.052Z,4.10
2023-01-17T00:15:50.333Z,4.10
2023-01-17T00:18:22.675Z,3.90
2023-01-17T00:21:13.554Z,4.20
2023-01-17T00:23:57.197Z,4.10
2023-01-17T00:26:26.973Z,3.80
2023-01-17T00:28:58.434Z,4.30
2023-01-17T00:31:30.316Z,5.50
2023-01-17T00:33:58.901Z,4.90
2023-01-17T00:36:34.257Z,5.40
2023-01-17T00:39:09.476Z,6.30
2023-01-17T00:41:40.948Z,5.70
2023-01-17T00:44:28.872Z,5.20
2023-01-17T00:47:16.229Z,4.30
2023-01-17T00:50:03.729Z,5.30
2023-01-17T00:52:54.100Z,6.50
2023-01-17T00:55:44.944Z,4.10
2023-01-17T00:58:33.357Z,5.30
2023-01-17T01:01:25.090Z,5.50
2023-01-17T01:04:12.819Z,5.00
2023-01-17T01:07:00.480Z,5.50
2023-01-17T01:09:48.532Z,5.80
2023-01-17T01:12:35.547Z,5.40
2023-01-17T01:15:33.346Z,6.80
2023-01-17T01:18:25.622Z,7.00
2023-01-17T01:21:12.943Z,4.10
2023-01-17T01:24:00.624Z,5.10
2023-01-17T01:26:49.053Z,7.40
2023-01-17T01:29:46.436Z,4.90
2023-01-17T01:32:33.756Z,5.20
2023-01-17T01:35:04.998Z,4.20
2023-01-17T01:37:34.205Z,6.10
2023-01-17T01:40:05.129Z,5.10
2023-01-17T01:42:34.308Z,4.20
2023-01-17T01:45:15.695Z,4.70
2023-01-17T01:47:45.204Z,3.80
2023-01-17T01:50:15.029Z,4.30
2023-01-17T01:52:54.986Z,5.30
2023-01-17T01:55:31.859Z,5.40
2023-01-17T01:58:04.336Z,6.40
2023-01-17T02:00:40.628Z,5.50
2023-01-17T02:03:21.599Z,6.60
2023-01-17T02:05:54.193Z,6.20
2023-01-17T02:08:24.785Z,9.80
2023-01-17T02:10:54.178Z,10.00
2023-01-17T02:13:23.535Z,9.90
2023-01-17T02:16:03.774Z,7.20
2023-01-17T02:18:48.268Z,8.30
2023-01-17T02:21:24.099Z,11.30
2023-01-17T02:24:21.691Z,15.50
2023-01-17T02:26:59.858Z,13.50
2023-01-17T02:30:03.755Z,13.00
2023-01-17T02:32:56.414Z,8.10
2023-01-17T02:35:34.912Z,5.10
2023-01-17T02:38:17.499Z,4.90
2023-01-17T02:43:21.770Z,5.20
2023-01-17T02:45:55.344Z,6.50
2023-01-17T02:48:28.167Z,4.80
2023-01-17T02:51:24.379Z,6.30
2023-01-17T02:54:17.640Z,5.50
2023-01-17T02:56:57.285Z,4.30
2023-01-17T02:59:40.199Z,6.20
2023-01-17T03:02:20.133Z,4.60
2023-01-17T03:04:55.403Z,4.80
2023-01-17T03:07:29.481Z,6.10
2023-01-17T03:10:02.160Z,6.20
2023-01-17T03:12:33.522Z,5.60
2023-01-17T03:15:12.435Z,5.40
2023-01-17T03:17:45.830Z,7.00
2023-01-17T03:20:18.137Z,8.40
2023-01-17T03:22:47.245Z,7.30
2023-01-17T03:25:19.878Z,8.30
2023-01-17T03:27:49.183Z,5.80
2023-01-17T03:30:21.146Z,6.30
2023-01-17T03:32:51.089Z,5.30
2023-01-17T03:35:23.024Z,6.30
2023-01-17T03:37:52.017Z,5.20
2023-01-17T03:40:21.632Z,6.20
2023-01-17T03:42:50.675Z,6.10
2023-01-17T03:45:20.023Z,5.70
2023-01-17T03:47:48.807Z,5.40
2023-01-17T03:50:20.801Z,7.10
2023-01-17T03:52:53.041Z,6.60
2023-01-17T03:55:21.975Z,7.00
2023-01-17T03:57:51.745Z,9.90
2023-01-17T04:00:24.844Z,9.20
2023-01-17T04:02:54.810Z,14.80
2023-01-17T04:05:24.888Z,17.60
2023-01-17T04:07:53.993Z,17.00
2023-01-17T04:10:26.348Z,11.30
2023-01-17T04:12:55.212Z,15.40
2023-01-17T04:15:24.206Z,13.70
2023-01-17T04:17:53.313Z,15.50
2023-01-17T04:20:32.062Z,8.70
2023-01-17T04:23:01.864Z,8.80
2023-01-17T04:25:31.597Z,9.70
2023-01-17T04:28:03.752Z,6.10
2023-01-17T04:30:33.334Z,5.20
2023-01-17T04:33:05.832Z,5.50
2023-01-17T04:35:35.439Z,5.80
2023-01-17T04:38:08.331Z,5.70
2023-01-17T04:40:37.177Z,6.00
2023-01-17T04:43:06.444Z,7.00
2023-01-17T04:45:36.660Z,6.10
2023-01-17T04:48:13.615Z,6.40
2023-01-17T04:50:42.611Z,5.80
2023-01-17T04:53:12.067Z,6.70
2023-01-17T04:55:50.737Z,6.10
2023-01-17T04:58:20.497Z,4.30
2023-01-17T05:00:51.871Z,6.10
2023-01-17T05:03:22.503Z,6.20
2023-01-17T05:05:51.696Z,8.20
2023-01-17T05:08:21.197Z,6.40
2023-01-17T05:10:50.439Z,6.40
2023-01-17T05:13:19.525Z,6.40
2023-01-17T05:15:49.363Z,5.70
2023-01-17T05:18:22.148Z,5.80
2023-01-17T05:20:54.312Z,5.60
2023-01-17T05:23:24.830Z,6.30
2023-01-17T05:25:57.130Z,5.80
2023-01-17T05:28:27.126Z,5.80
2023-01-17T05:30:56.324Z,6.60
2023-01-17T05:33:28.339Z,5.80
2023-01-17T05:35:57.326Z,7.10
2023-01-17T05:38:32.633Z,5.90
2023-01-17T05:41:04.510Z,7.50
2023-01-17T05:43:34.053Z,6.50
2023-01-17T05:46:14.162Z,5.60
2023-01-17T05:48:46.196Z,9.90
2023-01-17T05:51:18.311Z,7.70
2023-01-17T05:53:50.282Z,8.40
2023-01-17T05:56:19.188Z,9.00
2023-01-17T05:58:51.664Z,8.50
2023-01-17T06:01:24.314Z,7.10
2023-01-17T06:03:53.966Z,8.60
2023-01-17T06:06:26.442Z,6.90
2023-01-17T06:08:56.032Z,8.10
2023-01-17T06:11:26.273Z,8.30
2023-01-17T06:13:58.256Z,7.40
2023-01-17T06:16:27.335Z,7.80
2023-01-17T06:18:56.270Z,7.80
2023-01-17T06:21:25.361Z,7.10
2023-01-17T06:23:58.996Z,5.60
2023-01-17T06:26:27.884Z,7.90
2023-01-17T06:28:56.811Z,7.50
2023-01-17T06:31:31.821Z,8.30
2023-01-17T06:34:04.399Z,7.20
2023-01-17T06:36:34.716Z,7.80
2023-01-17T06:39:04.352Z,8.80
2023-01-17T06:41:36.860Z,10.10
2023-01-17T06:44:12.759Z,8.00
2023-01-17T06:46:50.931Z,8.00
2023-01-17T06:49:20.051Z,7.40
2023-01-17T06:51:49.218Z,7.60
2023-01-17T06:54:21.753Z,7.80
2023-01-17T06:56:53.679Z,8.70
2023-01-17T06:59:22.758Z,9.80
2023-01-17T07:01:51.970Z,8.50
2023-01-17T07:04:21.404Z,7.10
2023-01-17T07:06:50.814Z,10.00
2023-01-17T07:09:42.610Z,7.80
2023-01-17T07:12:12.727Z,8.70
2023-01-17T07:14:44.396Z,9.70
2023-01-17T07:17:19.341Z,9.10
2023-01-17T07:19:48.412Z,8.70
2023-01-17T07:22:20.478Z,8.20
2023-01-17T07:24:50.220Z,8.90
2023-01-17T07:29:49.314Z,9.90
2023-01-17T07:32:19.112Z,9.00
2023-01-17T07:34:48.136Z,6.80
2023-01-17T07:37:22.572Z,8.90
2023-01-17T07:39:54.686Z,8.00
2023-01-17T07:42:25.767Z,8.60
2023-01-17T07:44:57.625Z,8.80
2023-01-17T07:47:27.243Z,12.10
2023-01-17T07:49:57.128Z,10.30
2023-01-17T07:52:26.173Z,8.00
2023-01-17T07:54:58.424Z,9.60
2023-01-17T07:57:39.934Z,11.20
2023-01-17T08:00:27.124Z,9.90
2023-01-17T08:03:00.944Z,10.40
2023-01-17T08:05:33.621Z,10.80
2023-01-17T08:08:03.430Z,10.10
2023-01-17T08:10:32.622Z,9.70
2023-01-17T08:13:01.759Z,9.60
2023-01-17T08:15:46.852Z,12.70
2023-01-17T08:18:16.334Z,8.30
2023-01-17T08:20:46.799Z,9.10
2023-01-17T08:23:19.357Z,12.30
2023-01-17T08:25:48.624Z,10.40
2023-01-17T08:28:20.035Z,12.60
2023-01-17T08:30:51.935Z,10.50
2023-01-17T08:33:21.597Z,10.40
2023-01-17T08:35:54.074Z,6.70
2023-01-17T08:38:23.524Z,9.30
2023-01-17T08:40:52.360Z,9.20
2023-01-17T08:43:21.639Z,11.00
2023-01-17T08:45:55.601Z,10.30
2023-01-17T08:48:27.585Z,13.50
2023-01-17T08:51:04.848Z,17.80
2023-01-17T08:53:34.192Z,17.70
2023-01-17T08:56:06.367Z,18.30
2023-01-17T08:58:36.501Z,14.50
2023-01-17T09:01:07.873Z,11.50
2023-01-17T09:03:40.837Z,17.60
2023-01-17T09:06:21.423Z,18.70
2023-01-17T09:08:54.304Z,15.70
2023-01-17T09:11:23.827Z,18.40
2023-01-17T09:13:53.869Z,16.40
2023-01-17T09:16:22.927Z,14.00
2023-01-17T09:18:56.129Z,13.00
2023-01-17T09:21:25.767Z,11.50
2023-01-17T09:23:56.805Z,8.00
2023-01-17T09:26:28.896Z,9.50
2023-01-17T09:29:02.326Z,8.90
2023-01-17T09:31:37.226Z,8.30
2023-01-17T09:34:07.969Z,9.10
2023-01-17T09:36:45.868Z,7.60
2023-01-17T09:39:15.458Z,10.40
2023-01-17T09:44:30.864Z,9.70
2023-01-17T09:47:06.830Z,7.80
2023-01-17T09:49:48.819Z,9.70
2023-01-17T09:52:22.666Z,9.30
2023-01-17T09:54:52.848Z,12.30
2023-01-17T09:57:42.797Z,10.30
2023-01-17T10:00:31.816Z,9.40
2023-01-17T10:03:50.920Z,12.60
2023-01-17T10:09:25.891Z,11.50
2023-01-17T10:12:21.803Z,7.20
2023-01-17T10:15:15.110Z,7.90
2023-01-17T10:17:54.251Z,10.60
2023-01-17T10:20:42.640Z,8.30
2023-01-17T10:26:23.408Z,9.60
2023-01-17T10:29:02.624Z,8.00
2023-01-17T10:31:42.332Z,9.70
2023-01-17T10:34:18.376Z,9.20
2023-01-17T10:36:51.608Z,10.40
2023-01-17T10:39:23.536Z,15.30
2023-01-17T10:41:55.749Z,8.90
2023-01-17T10:44:33.094Z,6.40
2023-01-17T10:47:12.788Z,9.20
2023-01-17T10:49:52.311Z,6.00
2023-01-17T10:52:33.562Z,9.30
2023-01-17T10:55:34.416Z,10.60
2023-01-17T10:58:08.759Z,6.10
2023-01-17T11:00:45.029Z,7.20
2023-01-17T11:03:20.943Z,7.60
2023-01-17T11:06:20.774Z,5.60
2023-01-17T11:08:55.739Z,11.20
2023-01-17T11:11:30.423Z,7.90
2023-01-17T11:14:01.811Z,5.20
2023-01-17T11:16:36.695Z,10.20
2023-01-17T11:19:16.564Z,9.60
2023-01-17T11:21:58.112Z,7.70
2023-01-17T11:24:32.764Z,8.70
2023-01-17T11:27:07.139Z,7.20
2023-01-17T11:29:38.373Z,10.00
2023-01-17T11:32:31.494Z,6.60
2023-01-17T11:35:14.854Z,7.70
2023-01-17T11:37:51.717Z,4.30
2023-01-17T11:40:46.101Z,5.80
2023-01-17T11:43:28.718Z,6.10
2023-01-17T11:46:17.262Z,5.70
2023-01-17T11:48:51.439Z,4.50
2023-01-17T11:51:28.660Z,4.60
2023-01-17T11:54:13.524Z,3.90
2023-01-17T11:56:51.631Z,4.70
2023-01-17T11:59:29.407Z,4.90
2023-01-17T12:02:21.424Z,4.10
2023-01-17T12:05:02.661Z,4.10
2023-01-17T12:07:48.453Z,4.60
2023-01-17T12:10:23.547Z,3.20
2023-01-17T12:13:20.571Z,3.80
2023-01-17T12:16:01.526Z,4.20
2023-01-17T12:18:50.218Z,3.40
2023-01-17T12:21:28.474Z,4.10
2023-01-17T12:24:23.413Z,6.60
2023-01-17T12:27:06.606Z,3.60
2023-01-17T12:30:04.008Z,5.10
2023-01-17T12:32:52.510Z,4.10
2023-01-17T12:35:27.334Z,4.90
2023-01-17T12:38:05.216Z,3.80
2023-01-17T12:40:45.648Z,4.50
2023-01-17T12:43:22.584Z,3.80
2023-01-17T12:45:54.593Z,4.30
2023-01-17T12:48:30.219Z,4.80
2023-01-17T12:51:19.003Z,4.70
2023-01-17T12:53:56.195Z,3.80
2023-01-17T12:56:30.867Z,5.10
2023-01-17T12:59:15.960Z,4.90
2023-01-17T13:01:57.083Z,4.00
2023-01-17T13:04:30.610Z,4.40
2023-01-17T13:07:13.131Z,6.20
2023-01-17T13:12:26.631Z,3.90
2023-01-17T13:14:58.696Z,4.50
2023-01-17T13:17:38.760Z,4.50
2023-01-17T13:20:28.725Z,4.40
2023-01-17T13:23:05.995Z,3.30
2023-01-17T13:25:51.369Z,5.80
2023-01-17T13:28:35.474Z,4.30
2023-01-17T13:31:33.208Z,5.50
2023-01-17T13:34:50.508Z,8.60
2023-01-17T13:37:43.820Z,8.60
2023-01-17T13:40:39.029Z,5.30
2023-01-17T13:43:16.279Z,3.70
2023-01-17T13:45:55.167Z,3.20
2023-01-17T13:48:34.066Z,3.20
2023-01-17T13:51:07.718Z,2.80
2023-01-17T13:53:58.538Z,3.30
2023-01-17T13:56:35.960Z,5.20
2023-01-17T13:59:28.611Z,3.90
2023-01-17T14:02:01.000Z,7.30
2023-01-17T14:05:20.094Z,11.00
2023-01-17T14:07:58.878Z,15.90
2023-01-17T14:10:37.257Z,12.50
2023-01-17T14:13:25.599Z,9.20
2023-01-17T14:16:04.917Z,6.90
2023-01-17T14:18:41.962Z,5.70
2023-01-17T14:21:26.177Z,5.80
2023-01-17T14:24:04.150Z,4.30
2023-01-17T14:26:41.003Z,4.00
2023-01-17T14:29:52.024Z,5.50
2023-01-17T14:32:24.163Z,6.10
2023-01-17T14:35:02.907Z,4.40
2023-01-17T14:37:48.659Z,4.10
2023-01-17T14:40:26.105Z,6.30
2023-01-17T14:43:01.550Z,4.90
2023-01-17T14:45:33.357Z,5.40
2023-01-17T14:48:06.195Z,5.60
2023-01-17T14:50:39.246Z,4.20
2023-01-17T14:53:17.121Z,6.00
2023-01-17T14:55:59.761Z,5.00
2023-01-17T14:58:31.263Z,4.60
2023-01-17T15:01:03.229Z,4.00
2023-01-17T15:03:45.897Z,4.50
2023-01-17T15:06:20.001Z,4.10
2023-01-17T15:08:53.742Z,5.50
2023-01-17T15:11:25.671Z,4.90
2023-01-17T15:14:01.069Z,4.40
2023-01-17T15:16:37.130Z,7.00
2023-01-17T15:19:16.298Z,6.80
2023-01-17T15:21:54.233Z,20.70
2023-01-17T15:24:26.984Z,22.80
2023-01-17T15:26:57.037Z,21.30
2023-01-17T15:29:29.156Z,30.90
2023-01-17T15:31:59.713Z,27.00
2023-01-17T15:34:30.753Z,17.60
2023-01-17T15:37:03.385Z,16.80
2023-01-17T15:39:35.485Z,39.10
2023-01-17T15:42:07.807Z,40.70
2023-01-17T15:44:47.921Z,38.00
2023-01-17T15:47:31.454Z,51.20
2023-01-17T15:50:05.912Z,116.80
2023-01-17T15:52:48.837Z,104.40
2023-01-17T15:55:26.969Z,107.00
2023-01-17T15:57:56.764Z,160.10
2023-01-17T16:00:36.350Z,143.20
2023-01-17T16:03:22.494Z,178.80
2023-01-17T16:05:57.295Z,267.40
2023-01-17T16:08:39.313Z,163.60
2023-01-17T16:11:16.988Z,112.10
2023-01-17T16:13:49.757Z,89.00
2023-01-17T16:16:25.300Z,110.90
2023-01-17T16:19:00.692Z,84.90
2023-01-17T16:21:31.434Z,60.80
2023-01-17T16:24:02.486Z,36.40
2023-01-17T16:26:32.032Z,32.00
2023-01-17T16:29:01.446Z,69.90
2023-01-17T16:31:33.562Z,154.00
2023-01-17T16:34:03.133Z,68.60
2023-01-17T16:36:34.470Z,59.50
2023-01-17T16:39:04.310Z,73.80
2023-01-17T16:41:33.256Z,68.30
2023-01-17T16:44:04.816Z,65.70
2023-01-17T16:46:37.568Z,77.50
2023-01-17T16:49:09.708Z,77.60
2023-01-17T16:51:39.257Z,70.80
2023-01-17T16:54:08.378Z,63.80
2023-01-17T16:56:37.680Z,56.20
2023-01-17T16:59:10.326Z,61.70
2023-01-17T17:01:42.823Z,75.60
2023-01-17T17:04:13.333Z,84.70
2023-01-17T17:06:48.563Z,101.30
2023-01-17T17:09:18.061Z,127.30
2023-01-17T17:11:47.825Z,159.30
2023-01-17T17:14:17.544Z,187.30
2023-01-17T17:16:47.563Z,233.90
2023-01-17T17:19:17.061Z,275.20
2023-01-17T17:21:46.787Z,259.70
2023-01-17T17:24:17.270Z,273.60
2023-01-17T17:26:46.464Z,273.70
2023-01-17T17:29:22.101Z,256.70
2023-01-17T17:31:51.462Z,247.00
2023-01-17T17:34:22.763Z,190.30
2023-01-17T17:36:53.193Z,190.70
2023-01-17T17:39:22.588Z,202.60
2023-01-17T17:41:55.049Z,195.60
2023-01-17T17:44:28.167Z,254.40
2023-01-17T17:47:00.107Z,365.10
2023-01-17T17:49:32.370Z,417.90
2023-01-17T17:52:06.591Z,322.20
2023-01-17T17:54:36.312Z,225.00
2023-01-17T17:57:06.996Z,269.50
2023-01-17T17:59:39.619Z,257.40
2023-01-17T18:02:10.527Z,225.30
2023-01-17T18:04:39.939Z,166.80
2023-01-17T18:07:09.767Z,108.90
2023-01-17T18:09:51.360Z,110.60
2023-01-17T18:12:27.060Z,75.60
2023-01-17T18:14:56.037Z,77.60
2023-01-17T18:17:25.636Z,93.50
2023-01-17T18:19:55.020Z,92.80
2023-01-17T18:22:24.676Z,93.30
2023-01-17T18:24:54.132Z,86.00
2023-01-17T18:27:27.014Z,129.60
2023-01-17T18:29:56.516Z,107.30
2023-01-17T18:32:26.547Z,84.70
2023-01-17T18:34:55.633Z,88.20
2023-01-17T18:37:27.320Z,91.10
2023-01-17T18:39:56.797Z,94.90
2023-01-17T18:42:31.965Z,94.60
2023-01-17T18:45:04.018Z,123.10
2023-01-17T18:47:38.703Z,78.50
2023-01-17T18:50:09.977Z,72.60
2023-01-17T18:52:39.676Z,58.20
2023-01-17T18:55:10.155Z,50.20
2023-01-17T18:57:39.416Z,69.40
2023-01-17T19:00:16.380Z,73.60
2023-01-17T19:02:50.919Z,130.70
2023-01-17T19:05:21.140Z,126.80
2023-01-17T19:07:50.359Z,102.20
2023-01-17T19:10:19.947Z,114.70
2023-01-17T19:12:48.811Z,106.20
2023-01-17T19:15:17.698Z,111.20
2023-01-17T19:17:46.801Z,113.90
2023-01-17T19:20:19.266Z,101.60
2023-01-17T19:22:52.104Z,89.90
2023-01-17T19:25:22.840Z,81.80
2023-01-17T19:27:52.561Z,64.20
2023-01-17T19:30:22.416Z,76.10
2023-01-17T19:32:51.536Z,84.10
2023-01-17T19:35:24.171Z,99.50
2023-01-17T19:37:55.385Z,96.40
2023-01-17T19:40:27.995Z,94.80
2023-01-17T19:42:57.662Z,97.90
2023-01-17T19:45:26.651Z,112.30
2023-01-17T19:47:57.078Z,128.00
2023-01-17T19:50:29.561Z,113.90
2023-01-17T19:52:58.975Z,90.40
2023-01-17T19:55:28.347Z,95.50
2023-01-17T19:58:00.371Z,106.80
2023-01-17T20:00:30.492Z,105.70
2023-01-17T20:03:05.115Z,103.80
2023-01-17T20:05:37.715Z,101.00
2023-01-17T20:08:09.244Z,95.90
2023-01-17T20:10:38.625Z,94.80
2023-01-17T20:13:07.685Z,94.00
2023-01-17T20:15:40.693Z,103.00
2023-01-17T20:18:35.181Z,93.60
2023-01-17T20:21:09.541Z,84.90
2023-01-17T20:23:41.721Z,80.50
2023-01-17T20:26:11.743Z,90.00
2023-01-17T20:28:42.249Z,92.80
2023-01-17T20:31:14.010Z,97.10
2023-01-17T20:33:50.665Z,93.20
2023-01-17T20:36:22.242Z,90.80
2023-01-17T20:38:53.202Z,86.50
2023-01-17T20:41:24.771Z,82.90
2023-01-17T20:43:58.563Z,85.90
2023-01-17T20:46:30.776Z,94.20
2023-01-17T20:49:00.511Z,86.20
2023-01-17T20:51:30.928Z,93.60
2023-01-17T20:54:03.022Z,92.80
2023-01-17T20:56:34.563Z,105.60
2023-01-17T20:59:11.736Z,107.10
2023-01-17T21:01:43.255Z,103.60
2023-01-17T21:04:14.115Z,94.40
2023-01-17T21:06:51.195Z,90.50
2023-01-17T21:09:21.638Z,63.40
2023-01-17T21:11:51.448Z,51.50
2023-01-17T21:14:21.823Z,44.90
2023-01-17T21:16:51.704Z,47.30
2023-01-17T21:19:21.376Z,43.80
2023-01-17T21:21:55.742Z,51.80
2023-01-17T21:24:25.502Z,49.90
2023-01-17T21:26:54.746Z,48.30
2023-01-17T21:29:28.329Z,54.40
2023-01-17T21:31:58.256Z,52.60
2023-01-17T21:34:31.445Z,54.30
2023-01-17T21:37:02.206Z,55.20
2023-01-17T21:39:32.303Z,60.10
2023-01-17T21:44:35.758Z,50.30
2023-01-17T21:47:04.953Z,56.30
2023-01-17T21:49:36.661Z,52.50
2023-01-17T21:52:20.096Z,50.70
2023-01-17T21:55:07.623Z,50.30
2023-01-17T21:57:55.654Z,83.70
2023-01-17T22:00:25.072Z,76.60
2023-01-17T22:02:54.107Z,84.80
2023-01-17T22:05:23.264Z,72.50
2023-01-17T22:08:14.921Z,113.00
2023-01-17T22:10:47.497Z,107.40
2023-01-17T22:13:20.255Z,90.40
2023-01-17T22:15:59.831Z,82.10
2023-01-17T22:18:30.256Z,100.50
2023-01-17T22:21:03.401Z,70.40
2023-01-17T22:23:35.698Z,85.30
2023-01-17T22:26:09.498Z,66.00
2023-01-17T22:28:42.529Z,67.20
2023-01-17T22:31:22.792Z,66.00
2023-01-17T22:33:57.745Z,77.80
2023-01-17T22:36:32.327Z,95.00
2023-01-17T22:39:04.974Z,84.70
2023-01-17T22:41:40.964Z,62.30
2023-01-17T22:44:22.765Z,65.80
2023-01-17T22:46:52.614Z,63.60
2023-01-17T22:49:23.057Z,61.60
2023-01-17T22:51:52.238Z,73.60
2023-01-17T22:54:22.139Z,69.50
2023-01-17T22:56:54.255Z,78.80
2023-01-17T22:59:29.697Z,62.00
2023-01-17T23:01:59.138Z,59.10
2023-01-17T23:04:28.703Z,58.60
2023-01-17T23:06:58.223Z,60.40
2023-01-17T23:09:27.991Z,61.70
2023-01-17T23:11:57.222Z,54.40
2023-01-17T23:14:51.101Z,53.90
2023-01-17T23:17:42.797Z,45.70
2023-01-17T23:20:21.258Z,55.50
2023-01-17T23:22:51.375Z,62.40
2023-01-17T23:28:18.533Z,48.30
2023-01-17T23:30:49.728Z,50.90
2023-01-17T23:33:27.859Z,53.90
2023-01-17T23:35:57.245Z,52.80
2023-01-17T23:38:28.364Z,47.30
2023-01-17T23:41:24.383Z,50.80
2023-01-17T23:43:57.811Z,51.60
2023-01-17T23:46:28.237Z,48.20
2023-01-17T23:48:57.461Z,50.70
2023-01-17T23:51:26.908Z,47.60
2023-01-17T23:54:04.802Z,57.20
2023-01-17T23:56:37.605Z,52.80
2023-01-17T23:59:06.911Z,55.50
